createdAt,value
2022-10-19T00:03:42.140Z,101390.03
2022-10-19T00:07:43.662Z,101395.53
2022-10-19T00:11:48.539Z,101388.50
2022-10-19T00:15:50.015Z,101397.56
2022-10-19T00:19:51.464Z,101393.34
2022-10-19T00:23:53.211Z,101394.59
2022-10-19T00:27:54.811Z,101394.06
2022-10-19T00:31:56.396Z,101398.94
2022-10-19T00:35:58.041Z,101401.00
2022-10-19T00:39:59.610Z,101395.44
2022-10-19T00:44:11.661Z,101404.88
2022-10-19T00:48:15.388Z,101396.66
2022-10-19T00:52:20.905Z,101397.09
2022-10-19T00:56:23.134Z,101406.41
2022-10-19T01:00:24.863Z,101404.25
2022-10-19T01:04:27.897Z,101402.81
2022-10-19T01:08:30.265Z,101406.84
2022-10-19T01:13:06.772Z,101400.94
2022-10-19T01:17:23.252Z,101396.91
2022-10-19T01:21:28.713Z,101398.91
2022-10-19T01:25:49.013Z,101392.16
2022-10-19T01:30:13.026Z,101387.25
2022-10-19T01:34:23.138Z,101385.81
2022-10-19T01:38:40.591Z,101389.81
2022-10-19T01:43:02.683Z,101384.88
2022-10-19T01:47:09.922Z,101386.22
2022-10-19T01:51:19.649Z,101378.78
2022-10-19T01:55:22.684Z,101386.09
2022-10-19T01:59:26.290Z,101398.84
2022-10-19T02:03:28.517Z,101392.72
2022-10-19T02:07:30.687Z,101396.78
2022-10-19T02:11:33.451Z,101394.34
2022-10-19T02:15:40.984Z,101389.16
2022-10-19T02:19:43.260Z,101381.69
2022-10-19T02:23:48.356Z,101388.72
2022-10-19T02:27:52.445Z,101385.25
2022-10-19T02:31:54.501Z,101386.59
2022-10-19T02:35:57.459Z,101382.50
2022-10-19T02:39:59.147Z,101393.41
2022-10-19T02:44:10.233Z,101388.75
2022-10-19T02:48:17.533Z,101390.19
2022-10-19T02:52:19.311Z,101385.47
2022-10-19T02:56:21.048Z,101393.22
2022-10-19T03:00:22.831Z,101396.81
2022-10-19T03:04:24.409Z,101386.06
2022-10-19T03:08:26.107Z,101382.50
2022-10-19T03:12:27.647Z,101387.66
2022-10-19T03:16:29.174Z,101385.66
2022-10-19T03:20:30.703Z,101381.09
2022-10-19T03:24:33.082Z,101373.16
2022-10-19T03:28:34.788Z,101371.16
2022-10-19T03:32:36.404Z,101372.63
2022-10-19T03:36:39.581Z,101378.81
2022-10-19T03:40:41.064Z,101376.03
2022-10-19T03:44:42.524Z,101379.63
2022-10-19T03:48:44.236Z,101399.03
2022-10-19T03:52:45.742Z,101394.38
2022-10-19T03:56:47.341Z,101398.59
2022-10-19T04:00:48.807Z,101395.03
2022-10-19T04:04:50.442Z,101401.16
2022-10-19T04:08:51.914Z,101402.88
2022-10-19T04:12:53.980Z,101395.94
2022-10-19T04:16:55.696Z,101404.88
2022-10-19T04:20:58.174Z,101415.00
2022-10-19T04:24:59.725Z,101416.13
2022-10-19T04:29:01.975Z,101417.28
2022-10-19T04:33:03.766Z,101414.66
2022-10-19T04:37:05.469Z,101408.44
2022-10-19T04:41:10.135Z,101409.22
2022-10-19T04:45:11.572Z,101418.78
2022-10-19T04:49:16.379Z,101419.00
2022-10-19T04:53:21.241Z,101415.53
2022-10-19T04:57:22.833Z,101420.84
2022-10-19T05:01:26.053Z,101425.03
2022-10-19T05:05:27.608Z,101426.75
2022-10-19T05:09:29.260Z,101425.78
2022-10-19T05:13:32.894Z,101426.63
2022-10-19T05:17:34.915Z,101422.38
2022-10-19T05:21:36.866Z,101427.56
2022-10-19T05:25:38.358Z,101424.03
2022-10-19T05:29:39.962Z,101424.31
2022-10-19T05:33:42.586Z,101433.47
2022-10-19T05:37:44.060Z,101429.03
2022-10-19T05:41:47.353Z,101438.69
2022-10-19T05:45:48.887Z,101435.94
2022-10-19T05:49:50.515Z,101437.75
2022-10-19T05:53:54.631Z,101445.72
2022-10-19T05:57:56.429Z,101447.69
2022-10-19T06:01:57.985Z,101447.69
2022-10-19T06:06:03.041Z,101455.41
2022-10-19T06:10:04.982Z,101447.16
2022-10-19T06:14:11.657Z,101448.63
2022-10-19T06:18:13.393Z,101447.41
2022-10-19T06:23:05.681Z,101456.63
2022-10-19T06:27:57.214Z,101452.03
2022-10-19T06:32:00.158Z,101456.56
2022-10-19T06:36:35.527Z,101449.25
2022-10-19T06:40:37.173Z,101462.19
2022-10-19T06:44:42.381Z,101463.31
2022-10-19T06:48:44.085Z,101465.69
2022-10-19T06:52:46.048Z,101461.81
2022-10-19T06:57:57.180Z,101466.22
2022-10-19T07:01:58.769Z,101471.84
2022-10-19T07:06:02.624Z,101468.88
2022-10-19T07:10:04.697Z,101476.63
2022-10-19T07:14:06.309Z,101476.19
2022-10-19T07:18:07.898Z,101488.47
2022-10-19T07:22:09.374Z,101488.03
2022-10-19T07:26:12.608Z,101496.84
2022-10-19T07:30:14.102Z,101498.94
2022-10-19T07:34:17.106Z,101493.19
2022-10-19T07:38:18.812Z,101497.09
2022-10-19T07:42:23.410Z,101505.41
2022-10-19T07:46:29.167Z,101505.59
2022-10-19T07:50:30.676Z,101505.09
2022-10-19T07:54:32.234Z,101511.91
2022-10-19T07:58:34.323Z,101510.63
2022-10-19T08:02:54.692Z,101508.03
2022-10-19T08:06:57.363Z,101511.53
2022-10-19T08:11:06.782Z,101515.47
2022-10-19T08:15:08.627Z,101525.09
2022-10-19T08:19:12.764Z,101532.09
2022-10-19T08:23:14.324Z,101526.34
2022-10-19T08:27:16.733Z,101526.78
2022-10-19T08:31:21.181Z,101530.31
2022-10-19T08:35:22.779Z,101528.81
2022-10-19T08:39:24.365Z,101534.41
2022-10-19T08:43:35.118Z,101528.22
2022-10-19T08:47:39.883Z,101531.22
2022-10-19T08:51:45.100Z,101523.44
2022-10-19T08:56:03.754Z,101527.38
2022-10-19T09:00:35.178Z,101518.63
2022-10-19T09:04:40.069Z,101523.63
2022-10-19T09:08:41.630Z,101525.53
2022-10-19T09:13:14.954Z,101520.88
2022-10-19T09:17:17.141Z,101520.88
2022-10-19T09:21:30.903Z,101521.72
2022-10-19T09:25:39.439Z,101522.13
2022-10-19T09:29:55.816Z,101522.19
2022-10-19T09:34:01.446Z,101516.91
2022-10-19T09:38:06.679Z,101515.50
2022-10-19T09:42:17.985Z,101523.63
2022-10-19T09:51:02.375Z,101523.44
2022-10-19T09:55:13.080Z,101515.53
2022-10-19T09:59:23.024Z,101526.25
2022-10-19T10:03:53.822Z,101525.81
2022-10-19T10:07:57.990Z,101528.09
2022-10-19T10:17:59.769Z,101534.34
2022-10-19T10:22:03.867Z,101526.09
2022-10-19T10:26:30.324Z,101531.38
2022-10-19T10:31:01.630Z,101531.13
2022-10-19T10:35:07.714Z,101529.16
2022-10-19T10:39:16.697Z,101538.16
2022-10-19T10:43:56.720Z,101529.72
2022-10-19T10:48:30.352Z,101539.34
2022-10-19T10:52:32.494Z,101534.03
2022-10-19T10:57:12.826Z,101526.94
2022-10-19T11:01:20.050Z,101535.41
2022-10-19T11:05:59.038Z,101540.44
2022-10-19T11:10:51.150Z,101533.25
2022-10-19T11:15:02.485Z,101536.91
2022-10-19T11:19:24.409Z,101546.94
2022-10-19T11:24:07.808Z,101542.41
2022-10-19T11:28:42.878Z,101534.78
2022-10-19T11:33:34.348Z,101541.53
2022-10-19T11:43:15.763Z,101528.78
2022-10-19T11:48:02.128Z,101536.91
2022-10-19T11:52:29.924Z,101533.16
2022-10-19T11:57:01.860Z,101530.97
2022-10-19T12:01:23.941Z,101526.19
2022-10-19T12:05:41.138Z,101524.38
2022-10-19T12:10:04.163Z,101503.59
2022-10-19T12:20:18.907Z,101501.53
2022-10-19T12:24:25.333Z,101500.66
2022-10-19T12:28:32.916Z,101510.44
2022-10-19T12:32:51.989Z,101507.16
2022-10-19T12:37:12.694Z,101501.34
2022-10-19T12:41:33.010Z,101504.56
2022-10-19T12:45:39.456Z,101496.59
2022-10-19T12:49:49.606Z,101496.09
2022-10-19T12:53:51.307Z,101502.47
2022-10-19T12:58:01.371Z,101498.75
2022-10-19T13:02:06.392Z,101486.22
2022-10-19T13:06:15.572Z,101491.69
2022-10-19T13:10:21.539Z,101489.75
2022-10-19T13:14:48.804Z,101483.41
2022-10-19T13:19:40.425Z,101469.72
2022-10-19T13:24:24.479Z,101475.38
2022-10-19T13:28:29.723Z,101471.91
2022-10-19T13:33:21.163Z,101477.38
2022-10-19T13:37:23.129Z,101470.22
2022-10-19T13:41:46.636Z,101465.72
2022-10-19T13:46:18.376Z,101473.66
2022-10-19T13:50:34.021Z,101465.56
2022-10-19T13:55:19.911Z,101469.38
2022-10-19T13:59:50.416Z,101471.44
2022-10-19T14:04:17.326Z,101468.84
2022-10-19T14:08:25.307Z,101464.38
2022-10-19T14:12:30.076Z,101456.78
2022-10-19T14:16:31.837Z,101458.56
2022-10-19T14:20:40.659Z,101449.09
2022-10-19T14:25:18.164Z,101446.75
2022-10-19T14:30:10.747Z,101443.22
2022-10-19T14:34:14.759Z,101447.13
2022-10-19T14:38:26.417Z,101445.34
2022-10-19T14:42:45.716Z,101442.16
2022-10-19T14:46:48.440Z,101440.75
2022-10-19T14:50:56.163Z,101442.47
2022-10-19T14:54:59.988Z,101437.03
2022-10-19T14:59:52.381Z,101443.81
2022-10-19T15:04:44.148Z,101437.03
2022-10-19T15:09:47.359Z,101436.91
2022-10-19T15:14:17.581Z,101436.34
2022-10-19T15:18:44.030Z,101425.06
2022-10-19T15:22:44.680Z,101434.25
2022-10-19T15:27:22.808Z,101436.91
2022-10-19T15:31:27.837Z,101429.97
2022-10-19T15:35:32.344Z,101430.28
2022-10-19T15:39:41.015Z,101429.19
2022-10-19T15:43:49.662Z,101429.38
2022-10-19T15:48:09.959Z,101429.69
2022-10-19T15:52:17.341Z,101425.00
2022-10-19T15:56:20.935Z,101421.00
2022-10-19T16:00:22.625Z,101426.34
2022-10-19T16:05:14.117Z,101417.47
2022-10-19T16:09:20.616Z,101416.84
2022-10-19T16:13:29.632Z,101427.09
2022-10-19T16:17:32.435Z,101422.81
2022-10-19T16:21:45.636Z,101427.03
2022-10-19T16:25:49.821Z,101424.06
2022-10-19T16:29:51.549Z,101428.44
2022-10-19T16:33:53.243Z,101430.28
2022-10-19T16:37:54.823Z,101433.81
2022-10-19T16:41:56.449Z,101436.22
2022-10-19T16:45:58.139Z,101438.91
2022-10-19T16:50:20.330Z,101432.78
2022-10-19T16:54:26.740Z,101432.94
2022-10-19T16:58:28.535Z,101435.44
2022-10-19T17:02:30.131Z,101444.22
2022-10-19T17:06:33.897Z,101440.69
2022-10-19T17:10:35.557Z,101446.59
2022-10-19T17:14:39.536Z,101453.56
2022-10-19T17:18:42.987Z,101446.47
2022-10-19T17:22:44.770Z,101455.34
2022-10-19T17:26:46.272Z,101466.19
2022-10-19T17:30:48.996Z,101467.47
2022-10-19T17:34:50.595Z,101471.34
2022-10-19T17:38:53.546Z,101466.50
2022-10-19T17:42:55.066Z,101462.75
2022-10-19T17:46:56.939Z,101463.25
2022-10-19T17:51:03.828Z,101482.47
2022-10-19T17:55:12.137Z,101487.47
2022-10-19T17:59:14.349Z,101482.84
2022-10-19T18:03:24.782Z,101482.59
2022-10-19T18:07:35.311Z,101480.34
2022-10-19T18:11:41.049Z,101476.34
2022-10-19T18:15:42.661Z,101486.44
2022-10-19T18:19:47.606Z,101490.31
2022-10-19T18:23:49.392Z,101494.16
2022-10-19T18:27:58.851Z,101498.00
2022-10-19T18:32:01.398Z,101482.41
2022-10-19T18:36:03.620Z,101489.94
2022-10-19T18:40:05.771Z,101491.97
2022-10-19T18:44:08.814Z,101473.66
2022-10-19T18:48:11.555Z,101473.06
2022-10-19T18:52:14.255Z,101467.22
2022-10-19T18:56:18.675Z,101464.81
2022-10-19T19:00:20.356Z,101462.47
2022-10-19T19:04:22.605Z,101465.31
2022-10-19T19:08:24.159Z,101471.75
2022-10-19T19:12:27.095Z,101467.53
2022-10-19T19:16:32.332Z,101464.09
2022-10-19T19:20:34.948Z,101459.84
2022-10-19T19:24:36.822Z,101467.06
2022-10-19T19:28:41.495Z,101463.63
2022-10-19T19:32:44.089Z,101462.16
2022-10-19T19:36:49.093Z,101469.41
2022-10-19T19:40:50.819Z,101459.66
2022-10-19T19:44:52.558Z,101476.34
2022-10-19T19:48:59.968Z,101465.81
2022-10-19T19:53:04.934Z,101476.47
2022-10-19T19:57:07.748Z,101478.38
2022-10-19T20:01:15.477Z,101474.84
2022-10-19T20:05:17.239Z,101484.66
2022-10-19T20:09:18.693Z,101474.13
2022-10-19T20:13:20.135Z,101482.19
2022-10-19T20:17:23.756Z,101489.28
2022-10-19T20:21:27.558Z,101488.38
2022-10-19T20:25:29.090Z,101490.56
2022-10-19T20:29:30.776Z,101494.47
2022-10-19T20:33:34.219Z,101494.72
2022-10-19T20:37:36.000Z,101491.19
2022-10-19T20:41:37.768Z,101503.44
2022-10-19T20:45:42.292Z,101486.84
2022-10-19T20:49:43.828Z,101480.66
2022-10-19T20:53:47.684Z,101489.38
2022-10-19T20:58:00.679Z,101491.94
2022-10-19T21:02:02.240Z,101497.53
2022-10-19T21:06:07.961Z,101487.25
2022-10-19T21:10:09.604Z,101495.22
2022-10-19T21:14:17.577Z,101494.50
2022-10-19T21:18:20.064Z,101488.63
2022-10-19T21:22:21.691Z,101486.88
2022-10-19T21:26:25.863Z,101491.72
2022-10-19T21:30:27.782Z,101486.72
2022-10-19T21:34:30.921Z,101488.59
2022-10-19T21:38:39.399Z,101487.75
2022-10-19T21:42:41.217Z,101480.59
2022-10-19T21:46:43.654Z,101475.09
2022-10-19T21:50:45.237Z,101465.56
2022-10-19T21:54:47.026Z,101467.22
2022-10-19T21:58:51.409Z,101462.78
2022-10-19T22:02:55.546Z,101460.22
2022-10-19T22:06:59.474Z,101452.31
2022-10-19T22:11:09.107Z,101454.78
2022-10-19T22:15:10.997Z,101447.88
2022-10-19T22:19:13.274Z,101447.31
2022-10-19T22:23:14.839Z,101444.66
2022-10-19T22:27:16.541Z,101440.06
2022-10-19T22:31:18.651Z,101435.91
2022-10-19T22:35:20.287Z,101433.78
2022-10-19T22:39:23.189Z,101430.56
2022-10-19T22:43:27.051Z,101421.63
2022-10-19T22:47:30.461Z,101422.59
2022-10-19T22:51:32.053Z,101424.63
2022-10-19T22:55:33.679Z,101428.47
2022-10-19T22:59:35.560Z,101426.03
2022-10-19T23:03:39.250Z,101417.31
2022-10-19T23:07:40.777Z,101419.13
2022-10-19T23:11:42.254Z,101416.59
2022-10-19T23:15:44.775Z,101422.84
2022-10-19T23:19:46.375Z,101409.81
2022-10-19T23:23:48.003Z,101412.63
2022-10-19T23:27:49.515Z,101410.97
2022-10-19T23:31:51.176Z,101406.66
2022-10-19T23:35:52.721Z,101408.38
2022-10-19T23:39:54.371Z,101407.56
2022-10-19T23:43:55.812Z,101407.72
2022-10-19T23:47:57.264Z,101405.94
2022-10-19T23:51:58.701Z,101406.06
2022-10-19T23:56:10.438Z,101401.69
